Home   Weather   Germany   Elmshorn   Past weeks
Flag for Germany

Past Weather in Elmshorn, Schleswig-Holstein, Germany — Yesterday and Last 2 Weeks

Currently: 41 °F. Partly sunny. (Weather station: Hamburg-Fuhlsbuettel, Germany). See more current weather

Past Weather in Elmshorn — Graph

°F

Elmshorn Temperature Yesterday

Maximum temperature yesterday: 57 °F (at 2:20 pm)
Minimum temperature yesterday: 30 °F (at 4:20 am)
Average temperature yesterday: 41 °F

High & Low Weather Summary for the Past Weeks

 TemperatureHumidityPressure
High66 °F (Feb 22, 2:50 pm)100% (Feb 17, 10:20 am)30.69 "Hg (Feb 17, 10:20 am)
Low27 °F (Mar 2, 4:50 am)40% (Feb 22, 4:20 pm)29.71 "Hg (Feb 18, 9:50 pm)
Average46 °F81%30.26 "Hg
* Reported Feb 17 10:20 am — Mar 4 10:50 am, Elmshorn. Weather by CustomWeather, © 2021

Note: Actual official high and low records may vary slightly from our data, if they occured in-between our weather recording intervals... More about our weather records

Elmshorn Weather History for the Previous 24 Hours

Scroll right to see more
 ConditionsComfort  
Time TempWeatherWind HumidityBarometerVisibility
10:50 am
Thu, Mar 4
41 °FBroken clouds.8 mph81%30.07 "HgN/A
10:20 am41 °FBroken clouds.8 mph81%30.07 "HgN/A
9:50 am39 °FPartly sunny.9 mph81%30.07 "HgN/A
9:20 am39 °FPartly sunny.8 mph81%30.07 "HgN/A
8:50 am39 °FPartly sunny.7 mph81%30.09 "HgN/A
8:20 am39 °FPartly sunny.8 mph81%30.09 "HgN/A
7:50 am37 °FPartly sunny.9 mph87%30.09 "HgN/A
7:20 am37 °FPartly sunny.12 mph87%30.09 "HgN/A
6:50 am37 °FPassing clouds.13 mph87%30.09 "HgN/A
6:20 am37 °FPassing clouds.10 mph87%30.09 "HgN/A
5:50 am37 °FPassing clouds.10 mph87%30.09 "HgN/A
5:20 am37 °FPassing clouds.8 mph87%30.12 "HgN/A
4:50 am37 °FPassing clouds.9 mph87%30.12 "HgN/A
4:20 am36 °FPassing clouds.10 mph93%30.12 "HgN/A
3:50 am36 °FPassing clouds.10 mph93%30.12 "HgN/A
3:20 am36 °FPassing clouds.12 mph93%30.15 "Hg4 mi
2:50 am36 °FDrizzle. Fog.12 mph93%30.15 "Hg3 mi
2:20 am36 °FDrizzle. Fog.12 mph100%30.15 "Hg2 mi
1:50 am36 °FDrizzle. Fog.13 mph100%30.18 "Hg1 mi
1:20 am37 °FDrizzle. Fog.15 mph93%30.18 "Hg1 mi
12:50 am37 °FDrizzle. Fog.14 mph100%30.18 "Hg1 mi
12:20 am37 °FFog.14 mph100%30.18 "Hg2 mi
11:50 pm
Wed, Mar 3
37 °FFog.14 mph100%30.18 "Hg2 mi
11:20 pm37 °FFog.14 mph100%30.18 "Hg2 mi
10:50 pm37 °FFog.10 mph100%30.18 "Hg3 mi
10:20 pm37 °FFog.13 mph100%30.18 "Hg1 mi
9:50 pm37 °FFog.15 mph100%30.21 "Hg1 mi
9:20 pm39 °FFog.14 mph100%30.21 "Hg1 mi
8:50 pm39 °FFog.10 mph100%30.21 "Hg1 mi
8:20 pm39 °FFog.12 mph100%30.21 "Hg1 mi
7:50 pm41 °FFog.12 mph93%30.21 "Hg2 mi
7:20 pm43 °FPassing clouds.16 mph87%30.21 "Hg4 mi
6:50 pm45 °FPassing clouds.12 mph87%30.21 "Hg5 mi
6:20 pm46 °FPassing clouds.12 mph82%30.21 "Hg5 mi
5:50 pm48 °FClear.14 mph76%30.21 "Hg5 mi
5:20 pm50 °FSunny.15 mph71%30.21 "Hg10 mi
4:50 pm54 °FPassing clouds.12 mph63%30.21 "HgN/A
4:20 pm54 °FPassing clouds.12 mph58%30.21 "HgN/A
3:50 pm55 °FPassing clouds.14 mph59%30.21 "HgN/A
3:20 pm57 °FPassing clouds.13 mph55%30.21 "HgN/A
2:50 pm57 °FPassing clouds.9 mph55%30.21 "HgN/A
2:20 pm57 °FPassing clouds.8 mph55%30.24 "HgN/A
1:50 pm55 °FSunny.9 mph59%30.24 "Hg10 mi
1:20 pm54 °FSunny.10 mph63%30.24 "Hg10 mi
12:50 pm55 °FPassing clouds.8 mph55%30.27 "HgN/A
12:20 pm54 °FPassing clouds.9 mph54%30.27 "HgN/A
11:50 am54 °FPassing clouds.6 mph58%30.30 "HgN/A
11:20 am50 °FPassing clouds.3 mph62%30.30 "HgN/A
Weather by CustomWeather, © 2021

See weather overview